sensor_id;sensor_type;location;lat;lon;timestamp;P1;durP1;ratioP1;P2;durP2;ratioP2
26181;SDS011;13927;51.534;11.866;2024-02-16T00:00:18;10.77;;;4.90;;
26181;SDS011;13927;51.534;11.866;2024-02-16T00:02:44;8.65;;;5.13;;
26181;SDS011;13927;51.534;11.866;2024-02-16T00:05:11;6.75;;;4.65;;
26181;SDS011;13927;51.534;11.866;2024-02-16T00:07:40;7.88;;;4.60;;
26181;SDS011;13927;51.534;11.866;2024-02-16T00:10:07;8.52;;;4.60;;
26181;SDS011;13927;51.534;11.866;2024-02-16T00:12:34;7.18;;;4.68;;
26181;SDS011;13927;51.534;11.866;2024-02-16T00:15:00;9.40;;;5.03;;
26181;SDS011;13927;51.534;11.866;2024-02-16T00:17:27;6.88;;;4.18;;
26181;SDS011;13927;51.534;11.866;2024-02-16T00:19:53;6.40;;;4.60;;
26181;SDS011;13927;51.534;11.866;2024-02-16T00:22:20;9.80;;;5.18;;
26181;SDS011;13927;51.534;11.866;2024-02-16T00:24:46;7.35;;;4.65;;
26181;SDS011;13927;51.534;11.866;2024-02-16T00:27:13;8.85;;;5.35;;
26181;SDS011;13927;51.534;11.866;2024-02-16T00:29:39;10.70;;;5.10;;
26181;SDS011;13927;51.534;11.866;2024-02-16T00:32:05;9.02;;;4.68;;
26181;SDS011;13927;51.534;11.866;2024-02-16T00:34:35;8.73;;;5.00;;
26181;SDS011;13927;51.534;11.866;2024-02-16T00:37:02;11.52;;;5.00;;
26181;SDS011;13927;51.534;11.866;2024-02-16T00:39:30;9.48;;;5.25;;
26181;SDS011;13927;51.534;11.866;2024-02-16T00:41:55;10.82;;;5.43;;
26181;SDS011;13927;51.534;11.866;2024-02-16T00:44:21;8.20;;;4.95;;
26181;SDS011;13927;51.534;11.866;2024-02-16T00:46:47;9.30;;;4.55;;
26181;SDS011;13927;51.534;11.866;2024-02-16T00:49:13;6.13;;;4.60;;
26181;SDS011;13927;51.534;11.866;2024-02-16T00:51:40;7.78;;;4.70;;
26181;SDS011;13927;51.534;11.866;2024-02-16T00:54:06;6.10;;;4.32;;
26181;SDS011;13927;51.534;11.866;2024-02-16T00:56:32;7.70;;;4.45;;
26181;SDS011;13927;51.534;11.866;2024-02-16T00:58:58;8.13;;;4.63;;
26181;SDS011;13927;51.534;11.866;2024-02-16T01:01:24;7.05;;;3.92;;
26181;SDS011;13927;51.534;11.866;2024-02-16T01:03:51;5.68;;;4.20;;
26181;SDS011;13927;51.534;11.866;2024-02-16T01:06:20;6.78;;;4.00;;
26181;SDS011;13927;51.534;11.866;2024-02-16T01:08:46;7.00;;;4.00;;
26181;SDS011;13927;51.534;11.866;2024-02-16T01:11:12;6.88;;;4.47;;
26181;SDS011;13927;51.534;11.866;2024-02-16T01:13:39;8.55;;;4.35;;
26181;SDS011;13927;51.534;11.866;2024-02-16T01:16:05;6.75;;;3.88;;
26181;SDS011;13927;51.534;11.866;2024-02-16T01:18:31;7.88;;;4.40;;
26181;SDS011;13927;51.534;11.866;2024-02-16T01:20:58;6.50;;;4.22;;
26181;SDS011;13927;51.534;11.866;2024-02-16T01:23:24;9.30;;;4.63;;
26181;SDS011;13927;51.534;11.866;2024-02-16T01:25:49;7.97;;;4.32;;
26181;SDS011;13927;51.534;11.866;2024-02-16T01:28:15;7.47;;;4.22;;
26181;SDS011;13927;51.534;11.866;2024-02-16T01:30:41;6.75;;;4.03;;
26181;SDS011;13927;51.534;11.866;2024-02-16T01:33:07;6.72;;;4.45;;
26181;SDS011;13927;51.534;11.866;2024-02-16T01:35:33;9.80;;;4.40;;
26181;SDS011;13927;51.534;11.866;2024-02-16T01:37:59;6.68;;;4.13;;
26181;SDS011;13927;51.534;11.866;2024-02-16T01:40:28;8.23;;;4.80;;
26181;SDS011;13927;51.534;11.866;2024-02-16T01:42:54;7.88;;;4.43;;
26181;SDS011;13927;51.534;11.866;2024-02-16T01:45:20;8.10;;;4.80;;
26181;SDS011;13927;51.534;11.866;2024-02-16T01:47:47;10.35;;;5.10;;
26181;SDS011;13927;51.534;11.866;2024-02-16T01:50:17;7.50;;;4.28;;
26181;SDS011;13927;51.534;11.866;2024-02-16T01:52:44;6.38;;;4.20;;
26181;SDS011;13927;51.534;11.866;2024-02-16T01:55:12;6.13;;;4.28;;
26181;SDS011;13927;51.534;11.866;2024-02-16T01:57:39;7.15;;;4.30;;
26181;SDS011;13927;51.534;11.866;2024-02-16T02:00:08;7.68;;;4.03;;
26181;SDS011;13927;51.534;11.866;2024-02-16T02:02:34;5.97;;;4.32;;
26181;SDS011;13927;51.534;11.866;2024-02-16T02:05:01;7.57;;;4.80;;
26181;SDS011;13927;51.534;11.866;2024-02-16T02:07:27;7.07;;;4.32;;
26181;SDS011;13927;51.534;11.866;2024-02-16T02:09:53;6.55;;;3.83;;
26181;SDS011;13927;51.534;11.866;2024-02-16T02:12:19;5.32;;;3.92;;
26181;SDS011;13927;51.534;11.866;2024-02-16T02:14:45;7.85;;;4.93;;
26181;SDS011;13927;51.534;11.866;2024-02-16T02:17:12;7.63;;;4.07;;
26181;SDS011;13927;51.534;11.866;2024-02-16T02:19:37;9.05;;;4.05;;
26181;SDS011;13927;51.534;11.866;2024-02-16T02:22:03;7.00;;;3.58;;
26181;SDS011;13927;51.534;11.866;2024-02-16T02:24:33;6.13;;;4.40;;
26181;SDS011;13927;51.534;11.866;2024-02-16T02:26:59;7.88;;;4.18;;
26181;SDS011;13927;51.534;11.866;2024-02-16T02:29:24;7.50;;;3.90;;
26181;SDS011;13927;51.534;11.866;2024-02-16T02:31:50;5.80;;;3.92;;
26181;SDS011;13927;51.534;11.866;2024-02-16T02:34:16;5.40;;;3.72;;
26181;SDS011;13927;51.534;11.866;2024-02-16T02:36:41;10.02;;;4.70;;
26181;SDS011;13927;51.534;11.866;2024-02-16T02:39:07;10.13;;;4.32;;
26181;SDS011;13927;51.534;11.866;2024-02-16T02:41:33;8.77;;;4.80;;
26181;SDS011;13927;51.534;11.866;2024-02-16T02:43:59;6.97;;;4.50;;
26181;SDS011;13927;51.534;11.866;2024-02-16T02:46:24;5.95;;;3.80;;
26181;SDS011;13927;51.534;11.866;2024-02-16T02:48:52;10.23;;;4.00;;
26181;SDS011;13927;51.534;11.866;2024-02-16T02:51:18;7.32;;;5.50;;
26181;SDS011;13927;51.534;11.866;2024-02-16T02:53:44;8.85;;;4.45;;
26181;SDS011;13927;51.534;11.866;2024-02-16T02:56:09;9.73;;;4.53;;
26181;SDS011;13927;51.534;11.866;2024-02-16T02:58:35;7.35;;;4.57;;
26181;SDS011;13927;51.534;11.866;2024-02-16T03:01:04;6.72;;;3.97;;
26181;SDS011;13927;51.534;11.866;2024-02-16T03:03:32;6.20;;;3.90;;
26181;SDS011;13927;51.534;11.866;2024-02-16T03:05:58;6.35;;;3.70;;
26181;SDS011;13927;51.534;11.866;2024-02-16T03:08:24;8.07;;;4.63;;
26181;SDS011;13927;51.534;11.866;2024-02-16T03:10:50;6.25;;;4.05;;
26181;SDS011;13927;51.534;11.866;2024-02-16T03:13:16;5.53;;;3.80;;
26181;SDS011;13927;51.534;11.866;2024-02-16T03:15:44;7.10;;;4.00;;
26181;SDS011;13927;51.534;11.866;2024-02-16T03:18:10;6.63;;;4.60;;
26181;SDS011;13927;51.534;11.866;2024-02-16T03:20:36;8.23;;;4.82;;
26181;SDS011;13927;51.534;11.866;2024-02-16T03:23:01;7.53;;;4.22;;
26181;SDS011;13927;51.534;11.866;2024-02-16T03:25:28;6.53;;;3.90;;
26181;SDS011;13927;51.534;11.866;2024-02-16T03:27:54;5.43;;;3.90;;
26181;SDS011;13927;51.534;11.866;2024-02-16T03:30:20;7.80;;;3.70;;
26181;SDS011;13927;51.534;11.866;2024-02-16T03:32:49;8.77;;;4.15;;
26181;SDS011;13927;51.534;11.866;2024-02-16T03:35:15;7.70;;;4.18;;
26181;SDS011;13927;51.534;11.866;2024-02-16T03:37:42;7.13;;;4.45;;
26181;SDS011;13927;51.534;11.866;2024-02-16T03:40:07;6.32;;;3.95;;
26181;SDS011;13927;51.534;11.866;2024-02-16T03:42:34;7.25;;;4.45;;
26181;SDS011;13927;51.534;11.866;2024-02-16T03:45:01;7.38;;;4.18;;
26181;SDS011;13927;51.534;11.866;2024-02-16T03:47:27;8.20;;;4.65;;
26181;SDS011;13927;51.534;11.866;2024-02-16T03:49:53;7.65;;;4.88;;
26181;SDS011;13927;51.534;11.866;2024-02-16T03:52:19;9.73;;;4.90;;
26181;SDS011;13927;51.534;11.866;2024-02-16T03:54:44;10.68;;;5.30;;
26181;SDS011;13927;51.534;11.866;2024-02-16T03:57:13;6.22;;;4.65;;
26181;SDS011;13927;51.534;11.866;2024-02-16T03:59:41;7.50;;;4.22;;
26181;SDS011;13927;51.534;11.866;2024-02-16T04:02:08;8.35;;;3.92;;
26181;SDS011;13927;51.534;11.866;2024-02-16T04:04:35;5.65;;;3.85;;
26181;SDS011;13927;51.534;11.866;2024-02-16T04:07:01;8.35;;;4.22;;
26181;SDS011;13927;51.534;11.866;2024-02-16T04:09:27;3.92;;;3.13;;
26181;SDS011;13927;51.534;11.866;2024-02-16T04:11:53;5.93;;;4.03;;
26181;SDS011;13927;51.534;11.866;2024-02-16T04:14:19;5.97;;;4.03;;
26181;SDS011;13927;51.534;11.866;2024-02-16T04:16:44;4.65;;;3.40;;
26181;SDS011;13927;51.534;11.866;2024-02-16T04:19:10;8.38;;;4.15;;
26181;SDS011;13927;51.534;11.866;2024-02-16T04:21:36;6.07;;;3.58;;
26181;SDS011;13927;51.534;11.866;2024-02-16T04:24:01;6.97;;;3.33;;
26181;SDS011;13927;51.534;11.866;2024-02-16T04:26:28;6.57;;;3.47;;
26181;SDS011;13927;51.534;11.866;2024-02-16T04:28:54;8.73;;;3.88;;
26181;SDS011;13927;51.534;11.866;2024-02-16T04:31:19;6.50;;;3.40;;
26181;SDS011;13927;51.534;11.866;2024-02-16T04:33:45;7.63;;;3.85;;
26181;SDS011;13927;51.534;11.866;2024-02-16T04:36:11;6.15;;;3.50;;
26181;SDS011;13927;51.534;11.866;2024-02-16T04:38:36;5.35;;;3.38;;
26181;SDS011;13927;51.534;11.866;2024-02-16T04:41:04;4.82;;;3.20;;
26181;SDS011;13927;51.534;11.866;2024-02-16T04:43:30;5.82;;;2.97;;
26181;SDS011;13927;51.534;11.866;2024-02-16T04:45:56;5.78;;;3.38;;
26181;SDS011;13927;51.534;11.866;2024-02-16T04:48:22;6.57;;;3.17;;
26181;SDS011;13927;51.534;11.866;2024-02-16T04:50:47;5.57;;;3.28;;
26181;SDS011;13927;51.534;11.866;2024-02-16T04:53:13;6.05;;;3.20;;
26181;SDS011;13927;51.534;11.866;2024-02-16T04:55:39;5.78;;;2.92;;
26181;SDS011;13927;51.534;11.866;2024-02-16T04:58:05;5.63;;;2.90;;
26181;SDS011;13927;51.534;11.866;2024-02-16T05:00:34;7.10;;;2.70;;
26181;SDS011;13927;51.534;11.866;2024-02-16T05:03:03;5.53;;;2.92;;
26181;SDS011;13927;51.534;11.866;2024-02-16T05:05:29;6.60;;;3.40;;
26181;SDS011;13927;51.534;11.866;2024-02-16T05:07:57;6.45;;;3.22;;
26181;SDS011;13927;51.534;11.866;2024-02-16T05:10:23;5.07;;;3.05;;
26181;SDS011;13927;51.534;11.866;2024-02-16T05:12:49;5.03;;;3.13;;
26181;SDS011;13927;51.534;11.866;2024-02-16T05:15:15;3.20;;;2.63;;
26181;SDS011;13927;51.534;11.866;2024-02-16T05:17:42;3.45;;;2.35;;
26181;SDS011;13927;51.534;11.866;2024-02-16T05:20:10;6.93;;;3.00;;
26181;SDS011;13927;51.534;11.866;2024-02-16T05:22:43;5.30;;;3.20;;
26181;SDS011;13927;51.534;11.866;2024-02-16T05:25:11;5.28;;;2.90;;
26181;SDS011;13927;51.534;11.866;2024-02-16T05:27:38;3.78;;;2.40;;
26181;SDS011;13927;51.534;11.866;2024-02-16T05:30:04;6.07;;;2.53;;
26181;SDS011;13927;51.534;11.866;2024-02-16T05:32:36;9.65;;;3.60;;
26181;SDS011;13927;51.534;11.866;2024-02-16T05:35:06;8.15;;;4.32;;
26181;SDS011;13927;51.534;11.866;2024-02-16T05:37:40;6.65;;;3.83;;
26181;SDS011;13927;51.534;11.866;2024-02-16T05:40:09;9.65;;;4.95;;
26181;SDS011;13927;51.534;11.866;2024-02-16T05:42:50;7.80;;;4.65;;
26181;SDS011;13927;51.534;11.866;2024-02-16T05:45:17;6.22;;;4.00;;
26181;SDS011;13927;51.534;11.866;2024-02-16T05:47:46;5.65;;;3.83;;
26181;SDS011;13927;51.534;11.866;2024-02-16T05:50:12;5.78;;;2.90;;
26181;SDS011;13927;51.534;11.866;2024-02-16T05:52:40;6.22;;;4.03;;
26181;SDS011;13927;51.534;11.866;2024-02-16T05:55:07;3.83;;;2.45;;
26181;SDS011;13927;51.534;11.866;2024-02-16T05:57:35;6.07;;;2.63;;
26181;SDS011;13927;51.534;11.866;2024-02-16T06:00:02;6.95;;;3.25;;
26181;SDS011;13927;51.534;11.866;2024-02-16T06:02:33;4.38;;;2.45;;
26181;SDS011;13927;51.534;11.866;2024-02-16T06:04:59;2.70;;;1.95;;
26181;SDS011;13927;51.534;11.866;2024-02-16T06:07:27;4.82;;;3.28;;
26181;SDS011;13927;51.534;11.866;2024-02-16T06:09:56;3.40;;;2.13;;
26181;SDS011;13927;51.534;11.866;2024-02-16T06:12:22;3.65;;;2.28;;
26181;SDS011;13927;51.534;11.866;2024-02-16T06:14:48;3.13;;;2.38;;
26181;SDS011;13927;51.534;11.866;2024-02-16T06:17:14;4.30;;;2.15;;
26181;SDS011;13927;51.534;11.866;2024-02-16T06:19:40;3.58;;;2.10;;
26181;SDS011;13927;51.534;11.866;2024-02-16T06:22:07;7.55;;;3.95;;
26181;SDS011;13927;51.534;11.866;2024-02-16T06:24:36;7.80;;;5.60;;
26181;SDS011;13927;51.534;11.866;2024-02-16T06:27:01;5.32;;;3.78;;
26181;SDS011;13927;51.534;11.866;2024-02-16T06:29:29;7.28;;;3.10;;
26181;SDS011;13927;51.534;11.866;2024-02-16T06:31:57;3.45;;;2.05;;
26181;SDS011;13927;51.534;11.866;2024-02-16T06:34:23;5.70;;;2.85;;
26181;SDS011;13927;51.534;11.866;2024-02-16T06:36:49;3.42;;;2.28;;
26181;SDS011;13927;51.534;11.866;2024-02-16T06:39:15;6.57;;;2.40;;
26181;SDS011;13927;51.534;11.866;2024-02-16T06:41:43;3.30;;;2.00;;
26181;SDS011;13927;51.534;11.866;2024-02-16T06:44:10;5.13;;;2.25;;
26181;SDS011;13927;51.534;11.866;2024-02-16T06:46:40;3.00;;;2.05;;
26181;SDS011;13927;51.534;11.866;2024-02-16T06:49:08;5.10;;;2.03;;
26181;SDS011;13927;51.534;11.866;2024-02-16T06:51:35;2.40;;;1.77;;
26181;SDS011;13927;51.534;11.866;2024-02-16T06:54:02;2.50;;;1.70;;
26181;SDS011;13927;51.534;11.866;2024-02-16T06:56:29;3.15;;;1.75;;
26181;SDS011;13927;51.534;11.866;2024-02-16T06:58:56;4.93;;;2.42;;
26181;SDS011;13927;51.534;11.866;2024-02-16T07:01:22;3.58;;;1.67;;
26181;SDS011;13927;51.534;11.866;2024-02-16T07:03:48;3.15;;;1.80;;
26181;SDS011;13927;51.534;11.866;2024-02-16T07:06:13;4.07;;;1.77;;
26181;SDS011;13927;51.534;11.866;2024-02-16T07:08:40;2.90;;;2.00;;
26181;SDS011;13927;51.534;11.866;2024-02-16T07:11:06;2.35;;;1.65;;
26181;SDS011;13927;51.534;11.866;2024-02-16T07:13:33;3.63;;;1.85;;
26181;SDS011;13927;51.534;11.866;2024-02-16T07:15:59;3.78;;;2.10;;
26181;SDS011;13927;51.534;11.866;2024-02-16T07:18:25;4.13;;;2.53;;
26181;SDS011;13927;51.534;11.866;2024-02-16T07:20:51;5.75;;;2.05;;
26181;SDS011;13927;51.534;11.866;2024-02-16T07:23:17;4.10;;;2.30;;
26181;SDS011;13927;51.534;11.866;2024-02-16T07:25:43;3.47;;;1.70;;
26181;SDS011;13927;51.534;11.866;2024-02-16T07:28:09;2.80;;;1.52;;
26181;SDS011;13927;51.534;11.866;2024-02-16T07:30:35;5.22;;;1.90;;
26181;SDS011;13927;51.534;11.866;2024-02-16T07:33:04;2.47;;;1.48;;
26181;SDS011;13927;51.534;11.866;2024-02-16T07:35:32;3.15;;;1.75;;
26181;SDS011;13927;51.534;11.866;2024-02-16T07:38:00;3.60;;;2.13;;
26181;SDS011;13927;51.534;11.866;2024-02-16T07:40:27;3.78;;;2.10;;
26181;SDS011;13927;51.534;11.866;2024-02-16T07:42:53;3.47;;;2.00;;
26181;SDS011;13927;51.534;11.866;2024-02-16T07:45:19;3.47;;;1.92;;
26181;SDS011;13927;51.534;11.866;2024-02-16T07:47:46;3.00;;;1.98;;
26181;SDS011;13927;51.534;11.866;2024-02-16T07:50:12;4.25;;;1.92;;
26181;SDS011;13927;51.534;11.866;2024-02-16T07:52:38;3.13;;;1.77;;
26181;SDS011;13927;51.534;11.866;2024-02-16T07:55:05;3.00;;;2.13;;
26181;SDS011;13927;51.534;11.866;2024-02-16T07:57:31;2.60;;;1.75;;
26181;SDS011;13927;51.534;11.866;2024-02-16T07:59:57;4.28;;;1.67;;
26181;SDS011;13927;51.534;11.866;2024-02-16T08:02:23;3.28;;;1.75;;
26181;SDS011;13927;51.534;11.866;2024-02-16T08:04:49;4.70;;;1.95;;
26181;SDS011;13927;51.534;11.866;2024-02-16T08:07:15;2.55;;;1.65;;
26181;SDS011;13927;51.534;11.866;2024-02-16T08:09:44;2.30;;;1.40;;
26181;SDS011;13927;51.534;11.866;2024-02-16T08:12:11;2.10;;;1.60;;
26181;SDS011;13927;51.534;11.866;2024-02-16T08:14:38;3.22;;;1.63;;
26181;SDS011;13927;51.534;11.866;2024-02-16T08:17:05;2.22;;;1.35;;
26181;SDS011;13927;51.534;11.866;2024-02-16T08:19:32;3.03;;;1.63;;
26181;SDS011;13927;51.534;11.866;2024-02-16T08:22:00;3.00;;;1.95;;
26181;SDS011;13927;51.534;11.866;2024-02-16T08:24:28;1.90;;;1.40;;
26181;SDS011;13927;51.534;11.866;2024-02-16T08:26:54;3.80;;;1.60;;
26181;SDS011;13927;51.534;11.866;2024-02-16T08:29:21;2.75;;;1.52;;
26181;SDS011;13927;51.534;11.866;2024-02-16T08:31:48;2.17;;;1.40;;
26181;SDS011;13927;51.534;11.866;2024-02-16T08:34:15;3.13;;;1.60;;
26181;SDS011;13927;51.534;11.866;2024-02-16T08:36:48;2.92;;;1.63;;
26181;SDS011;13927;51.534;11.866;2024-02-16T08:39:16;2.30;;;1.50;;
26181;SDS011;13927;51.534;11.866;2024-02-16T08:41:45;3.05;;;1.60;;
26181;SDS011;13927;51.534;11.866;2024-02-16T08:44:13;2.35;;;1.48;;
26181;SDS011;13927;51.534;11.866;2024-02-16T08:46:39;3.50;;;1.30;;
26181;SDS011;13927;51.534;11.866;2024-02-16T08:49:06;4.03;;;2.08;;
26181;SDS011;13927;51.534;11.866;2024-02-16T08:51:33;2.60;;;1.90;;
26181;SDS011;13927;51.534;11.866;2024-02-16T08:53:59;3.70;;;1.92;;
26181;SDS011;13927;51.534;11.866;2024-02-16T08:56:27;3.17;;;1.50;;
26181;SDS011;13927;51.534;11.866;2024-02-16T08:58:54;5.15;;;1.70;;
26181;SDS011;13927;51.534;11.866;2024-02-16T09:01:30;3.70;;;2.00;;
26181;SDS011;13927;51.534;11.866;2024-02-16T09:04:03;3.60;;;2.33;;
26181;SDS011;13927;51.534;11.866;2024-02-16T09:06:29;4.13;;;2.10;;
26181;SDS011;13927;51.534;11.866;2024-02-16T09:08:56;7.15;;;2.17;;
26181;SDS011;13927;51.534;11.866;2024-02-16T09:11:23;4.93;;;2.20;;
26181;SDS011;13927;51.534;11.866;2024-02-16T09:13:49;3.10;;;1.90;;
26181;SDS011;13927;51.534;11.866;2024-02-16T09:16:16;2.60;;;1.60;;
26181;SDS011;13927;51.534;11.866;2024-02-16T09:18:42;3.97;;;1.80;;
26181;SDS011;13927;51.534;11.866;2024-02-16T09:21:08;3.13;;;1.77;;
26181;SDS011;13927;51.534;11.866;2024-02-16T09:23:35;2.22;;;1.63;;
26181;SDS011;13927;51.534;11.866;2024-02-16T09:26:02;2.90;;;1.92;;
26181;SDS011;13927;51.534;11.866;2024-02-16T09:28:29;3.75;;;1.60;;
26181;SDS011;13927;51.534;11.866;2024-02-16T09:30:55;3.17;;;1.58;;
26181;SDS011;13927;51.534;11.866;2024-02-16T09:33:22;2.60;;;1.85;;
26181;SDS011;13927;51.534;11.866;2024-02-16T09:35:49;2.60;;;1.75;;
26181;SDS011;13927;51.534;11.866;2024-02-16T09:38:16;3.40;;;2.03;;
26181;SDS011;13927;51.534;11.866;2024-02-16T09:40:42;3.92;;;1.67;;
26181;SDS011;13927;51.534;11.866;2024-02-16T09:43:09;3.47;;;1.80;;
26181;SDS011;13927;51.534;11.866;2024-02-16T09:45:35;2.33;;;1.45;;
26181;SDS011;13927;51.534;11.866;2024-02-16T09:48:01;3.22;;;1.70;;
26181;SDS011;13927;51.534;11.866;2024-02-16T09:50:30;2.47;;;1.50;;
26181;SDS011;13927;51.534;11.866;2024-02-16T09:52:56;2.60;;;1.30;;
26181;SDS011;13927;51.534;11.866;2024-02-16T09:55:22;3.00;;;1.63;;
26181;SDS011;13927;51.534;11.866;2024-02-16T09:58:03;2.03;;;1.05;;
26181;SDS011;13927;51.534;11.866;2024-02-16T10:00:30;2.97;;;1.88;;
26181;SDS011;13927;51.534;11.866;2024-02-16T10:02:55;2.70;;;1.20;;
26181;SDS011;13927;51.534;11.866;2024-02-16T10:05:21;4.97;;;1.25;;
26181;SDS011;13927;51.534;11.866;2024-02-16T10:07:48;3.67;;;1.67;;
26181;SDS011;13927;51.534;11.866;2024-02-16T10:10:24;5.72;;;1.77;;
26181;SDS011;13927;51.534;11.866;2024-02-16T10:13:01;2.50;;;1.45;;
26181;SDS011;13927;51.534;11.866;2024-02-16T10:15:29;2.65;;;1.52;;
26181;SDS011;13927;51.534;11.866;2024-02-16T10:20:24;3.20;;;1.92;;
26181;SDS011;13927;51.534;11.866;2024-02-16T10:22:50;3.15;;;1.45;;
26181;SDS011;13927;51.534;11.866;2024-02-16T10:25:27;2.55;;;1.63;;
26181;SDS011;13927;51.534;11.866;2024-02-16T10:27:54;2.33;;;2.13;;
26181;SDS011;13927;51.534;11.866;2024-02-16T10:30:20;3.22;;;1.42;;
26181;SDS011;13927;51.534;11.866;2024-02-16T10:32:48;1.95;;;1.40;;
26181;SDS011;13927;51.534;11.866;2024-02-16T10:35:14;1.67;;;1.25;;
26181;SDS011;13927;51.534;11.866;2024-02-16T10:37:41;2.97;;;1.95;;
26181;SDS011;13927;51.534;11.866;2024-02-16T10:40:07;4.68;;;1.73;;
26181;SDS011;13927;51.534;11.866;2024-02-16T10:42:38;4.55;;;1.88;;
26181;SDS011;13927;51.534;11.866;2024-02-16T10:45:05;2.15;;;1.77;;
26181;SDS011;13927;51.534;11.866;2024-02-16T10:47:32;3.13;;;1.83;;
26181;SDS011;13927;51.534;11.866;2024-02-16T10:49:58;5.55;;;2.05;;
26181;SDS011;13927;51.534;11.866;2024-02-16T10:52:24;2.72;;;2.33;;
26181;SDS011;13927;51.534;11.866;2024-02-16T10:54:51;5.07;;;2.38;;
26181;SDS011;13927;51.534;11.866;2024-02-16T10:57:17;6.20;;;2.70;;
26181;SDS011;13927;51.534;11.866;2024-02-16T10:59:46;5.75;;;2.72;;
26181;SDS011;13927;51.534;11.866;2024-02-16T11:02:15;4.25;;;2.38;;
26181;SDS011;13927;51.534;11.866;2024-02-16T11:04:45;3.83;;;2.65;;
26181;SDS011;13927;51.534;11.866;2024-02-16T11:07:18;5.10;;;2.03;;
26181;SDS011;13927;51.534;11.866;2024-02-16T11:09:46;3.20;;;2.20;;
26181;SDS011;13927;51.534;11.866;2024-02-16T11:12:14;4.70;;;2.33;;
26181;SDS011;13927;51.534;11.866;2024-02-16T11:14:44;3.90;;;2.90;;
26181;SDS011;13927;51.534;11.866;2024-02-16T11:17:20;3.90;;;2.13;;
26181;SDS011;13927;51.534;11.866;2024-02-16T11:19:48;5.10;;;2.60;;
26181;SDS011;13927;51.534;11.866;2024-02-16T11:22:16;4.43;;;2.78;;
26181;SDS011;13927;51.534;11.866;2024-02-16T11:24:44;4.35;;;1.95;;
26181;SDS011;13927;51.534;11.866;2024-02-16T11:27:15;3.13;;;1.95;;
26181;SDS011;13927;51.534;11.866;2024-02-16T11:29:44;3.67;;;2.10;;
26181;SDS011;13927;51.534;11.866;2024-02-16T11:32:11;3.75;;;2.45;;
26181;SDS011;13927;51.534;11.866;2024-02-16T11:34:37;2.47;;;2.00;;
26181;SDS011;13927;51.534;11.866;2024-02-16T11:37:03;3.53;;;1.92;;
26181;SDS011;13927;51.534;11.866;2024-02-16T11:39:32;3.95;;;2.30;;
26181;SDS011;13927;51.534;11.866;2024-02-16T11:42:12;3.58;;;2.15;;
26181;SDS011;13927;51.534;11.866;2024-02-16T11:44:49;4.88;;;2.42;;
26181;SDS011;13927;51.534;11.866;2024-02-16T11:47:20;4.32;;;2.65;;
26181;SDS011;13927;51.534;11.866;2024-02-16T11:50:00;4.53;;;1.83;;
26181;SDS011;13927;51.534;11.866;2024-02-16T11:52:31;3.20;;;1.95;;
26181;SDS011;13927;51.534;11.866;2024-02-16T11:54:58;2.75;;;1.70;;
26181;SDS011;13927;51.534;11.866;2024-02-16T11:57:28;2.80;;;1.83;;
26181;SDS011;13927;51.534;11.866;2024-02-16T11:59:55;3.85;;;2.33;;
26181;SDS011;13927;51.534;11.866;2024-02-16T12:02:23;3.88;;;1.73;;
26181;SDS011;13927;51.534;11.866;2024-02-16T12:04:57;3.78;;;1.60;;
26181;SDS011;13927;51.534;11.866;2024-02-16T12:07:27;2.65;;;1.50;;
26181;SDS011;13927;51.534;11.866;2024-02-16T12:09:57;2.35;;;1.73;;
26181;SDS011;13927;51.534;11.866;2024-02-16T12:12:28;8.25;;;1.50;;
26181;SDS011;13927;51.534;11.866;2024-02-16T12:14:56;3.05;;;1.48;;
26181;SDS011;13927;51.534;11.866;2024-02-16T12:17:23;2.70;;;1.88;;
26181;SDS011;13927;51.534;11.866;2024-02-16T12:19:50;1.90;;;1.30;;
26181;SDS011;13927;51.534;11.866;2024-02-16T12:22:17;2.90;;;1.80;;
26181;SDS011;13927;51.534;11.866;2024-02-16T12:24:47;2.67;;;1.60;;
26181;SDS011;13927;51.534;11.866;2024-02-16T12:27:15;5.15;;;1.83;;
26181;SDS011;13927;51.534;11.866;2024-02-16T12:29:41;2.50;;;1.55;;
26181;SDS011;13927;51.534;11.866;2024-02-16T12:32:07;2.63;;;1.42;;
26181;SDS011;13927;51.534;11.866;2024-02-16T12:34:36;3.97;;;2.38;;
26181;SDS011;13927;51.534;11.866;2024-02-16T12:37:07;2.22;;;1.50;;
26181;SDS011;13927;51.534;11.866;2024-02-16T12:39:36;4.35;;;1.30;;
26181;SDS011;13927;51.534;11.866;2024-02-16T12:42:02;3.45;;;1.55;;
26181;SDS011;13927;51.534;11.866;2024-02-16T12:44:29;1.67;;;1.10;;
26181;SDS011;13927;51.534;11.866;2024-02-16T12:46:58;3.92;;;1.20;;
26181;SDS011;13927;51.534;11.866;2024-02-16T12:49:24;2.30;;;1.67;;
26181;SDS011;13927;51.534;11.866;2024-02-16T12:51:51;4.28;;;1.77;;
26181;SDS011;13927;51.534;11.866;2024-02-16T12:54:17;2.38;;;1.30;;
26181;SDS011;13927;51.534;11.866;2024-02-16T12:56:47;3.28;;;1.73;;
26181;SDS011;13927;51.534;11.866;2024-02-16T12:59:14;2.47;;;1.58;;
26181;SDS011;13927;51.534;11.866;2024-02-16T13:01:40;2.95;;;1.40;;
26181;SDS011;13927;51.534;11.866;2024-02-16T13:04:07;4.03;;;1.65;;
26181;SDS011;13927;51.534;11.866;2024-02-16T13:06:34;3.00;;;1.70;;
26181;SDS011;13927;51.534;11.866;2024-02-16T13:09:00;2.05;;;1.35;;
26181;SDS011;13927;51.534;11.866;2024-02-16T13:11:27;4.03;;;1.35;;
26181;SDS011;13927;51.534;11.866;2024-02-16T13:13:54;3.30;;;1.55;;
26181;SDS011;13927;51.534;11.866;2024-02-16T13:16:19;1.95;;;1.23;;
26181;SDS011;13927;51.534;11.866;2024-02-16T13:18:46;3.78;;;1.50;;
26181;SDS011;13927;51.534;11.866;2024-02-16T13:21:12;4.35;;;2.03;;
26181;SDS011;13927;51.534;11.866;2024-02-16T13:23:37;2.58;;;1.33;;
26181;SDS011;13927;51.534;11.866;2024-02-16T13:26:03;2.67;;;1.40;;
26181;SDS011;13927;51.534;11.866;2024-02-16T13:28:29;2.38;;;1.40;;
26181;SDS011;13927;51.534;11.866;2024-02-16T13:30:55;3.22;;;1.33;;
26181;SDS011;13927;51.534;11.866;2024-02-16T13:33:21;2.78;;;1.40;;
26181;SDS011;13927;51.534;11.866;2024-02-16T13:35:47;3.22;;;1.52;;
26181;SDS011;13927;51.534;11.866;2024-02-16T13:38:13;2.65;;;1.55;;
26181;SDS011;13927;51.534;11.866;2024-02-16T13:40:39;1.73;;;1.40;;
26181;SDS011;13927;51.534;11.866;2024-02-16T13:43:05;2.47;;;1.40;;
26181;SDS011;13927;51.534;11.866;2024-02-16T13:45:47;2.10;;;1.23;;
26181;SDS011;13927;51.534;11.866;2024-02-16T13:48:15;2.70;;;1.60;;
26181;SDS011;13927;51.534;11.866;2024-02-16T13:50:43;5.13;;;1.90;;
26181;SDS011;13927;51.534;11.866;2024-02-16T13:53:13;2.85;;;1.83;;
26181;SDS011;13927;51.534;11.866;2024-02-16T13:55:41;2.38;;;1.33;;
26181;SDS011;13927;51.534;11.866;2024-02-16T13:58:09;3.75;;;1.25;;
26181;SDS011;13927;51.534;11.866;2024-02-16T14:00:38;4.90;;;1.55;;
26181;SDS011;13927;51.534;11.866;2024-02-16T14:03:04;2.40;;;1.48;;
26181;SDS011;13927;51.534;11.866;2024-02-16T14:05:36;3.47;;;1.63;;
26181;SDS011;13927;51.534;11.866;2024-02-16T14:08:06;3.75;;;1.50;;
26181;SDS011;13927;51.534;11.866;2024-02-16T14:10:36;2.28;;;1.58;;
26181;SDS011;13927;51.534;11.866;2024-02-16T14:13:02;3.13;;;1.65;;
26181;SDS011;13927;51.534;11.866;2024-02-16T14:15:28;2.55;;;1.45;;
26181;SDS011;13927;51.534;11.866;2024-02-16T14:17:53;2.28;;;1.30;;
26181;SDS011;13927;51.534;11.866;2024-02-16T14:20:19;4.22;;;1.65;;
26181;SDS011;13927;51.534;11.866;2024-02-16T14:22:46;2.28;;;1.30;;
26181;SDS011;13927;51.534;11.866;2024-02-16T14:25:13;2.65;;;1.40;;
26181;SDS011;13927;51.534;11.866;2024-02-16T14:27:39;2.17;;;1.35;;
26181;SDS011;13927;51.534;11.866;2024-02-16T14:30:06;3.15;;;1.63;;
26181;SDS011;13927;51.534;11.866;2024-02-16T14:32:33;3.20;;;1.60;;
26181;SDS011;13927;51.534;11.866;2024-02-16T14:34:59;5.30;;;1.83;;